Terminal Aerodrome Forecast
Issued by NWS Blacksburg, VA

Home | Current Version | Previous Version | Text Only | Print | Product List | Glossary On
Versions: 1 2 3 4 5 6 7 8 9 10 11 12 13 14 15 16 17 18 19 20 21 22 23 24 25 26 27 28 29 30 31 32 33 34 35 36 37 38
940
FTUS41 KRNK 291138 CCA
TAFLYH
TAF COR
KLYH 291138Z 2912/3012 35003KT P6SM -SHRA BKN025 OVC040
     FM291700 02010G20KT P6SM VCSH BKN040
      TEMPO 2918/2922 3SM SHRA OVC030
     FM300100 01005KT P6SM SCT025 BKN100
     FM300600 01003KT P6SM SKC=

USA.gov is the U.S. government's official web portal to all federal, state and local government web resources and services.